Time;durP1;ratioP1;P1;durP2;ratioP2;P2;SDS_P1;SDS_P2;PMS_P1;PMS_P2;Temp;Humidity;BMP_temperature;BMP_pressure;BME280_temperature;BME280_humidity;BME280_pressure;Samples;Min_cycle;Max_cycle;Signal;HPM_P1;HPM_P2
2021/08/01 00:01:06;;;;;;;3.17;2.33;;;;;;;;;;5067485;28;20028;-74
2021/08/01 00:03:33;;;;;;;3.10;2.30;;;;;;;;;;5056247;28;20016;-75
2021/08/01 00:05:59;;;;;;;2.83;2.38;;;;;;;;;;5056028;28;20025;-74
2021/08/01 00:08:24;;;;;;;3.60;2.60;;;;;;;;;;5056002;28;20452;-74
2021/08/01 00:10:55;;;;;;;6.18;2.50;;;;;;;;;;5056251;28;20021;-74
2021/08/01 00:13:22;;;;;;;5.18;2.30;;;;;;;;;;5055987;28;20409;-74
2021/08/01 00:15:48;;;;;;;2.63;2.33;;;;;;;;;;5071089;28;20077;-74
2021/08/01 00:18:15;;;;;;;4.97;2.43;;;;;;;;;;5096133;28;20032;-74
2021/08/01 00:20:41;;;;;;;5.97;2.53;;;;;;;;;;5095949;28;20325;-74
2021/08/01 00:23:07;;;;;;;2.83;2.33;;;;;;;;;;5078044;28;20024;-73
2021/08/01 00:25:37;;;;;;;3.92;2.25;;;;;;;;;;5057935;28;20347;-74
2021/08/01 00:28:02;;;;;;;4.45;2.60;;;;;;;;;;5074939;28;20072;-74
2021/08/01 00:30:29;;;;;;;3.42;2.40;;;;;;;;;;5075461;28;20048;-75
2021/08/01 00:32:55;;;;;;;3.53;2.30;;;;;;;;;;5075752;28;20461;-74
2021/08/01 00:35:20;;;;;;;3.00;2.38;;;;;;;;;;5073120;28;20028;-74
2021/08/01 00:37:48;;;;;;;4.32;2.25;;;;;;;;;;5055575;28;20029;-74
2021/08/01 00:40:20;;;;;;;3.53;2.10;;;;;;;;;;5055520;28;20056;-74
2021/08/01 00:42:47;;;;;;;4.30;2.22;;;;;;;;;;5056444;28;20028;-74
2021/08/01 00:45:15;;;;;;;3.75;2.10;;;;;;;;;;5055288;28;20028;-74
2021/08/01 00:47:40;;;;;;;5.05;2.85;;;;;;;;;;5059952;28;20017;-74
2021/08/01 00:50:08;;;;;;;4.00;2.30;;;;;;;;;;5056409;28;20029;-74
2021/08/01 00:52:37;;;;;;;2.53;2.25;;;;;;;;;;5060709;28;20017;-74
2021/08/01 00:55:06;;;;;;;4.22;2.60;;;;;;;;;;5057029;28;20083;-74
2021/08/01 00:57:34;;;;;;;3.97;2.53;;;;;;;;;;5074741;28;20123;-74
2021/08/01 01:00:00;;;;;;;3.15;2.03;;;;;;;;;;5074941;28;20354;-75
2021/08/01 01:02:35;;;;;;;2.90;2.10;;;;;;;;;;5077054;28;20028;-74
2021/08/01 01:05:05;;;;;;;3.65;2.25;;;;;;;;;;5054512;28;20029;-74
2021/08/01 01:07:36;;;;;;;3.20;2.13;;;;;;;;;;5054533;28;20017;-75
2021/08/01 01:10:04;;;;;;;3.05;2.17;;;;;;;;;;5054572;28;20409;-74
2021/08/01 01:12:33;;;;;;;4.13;2.42;;;;;;;;;;5054670;28;20096;-74
2021/08/01 01:15:03;;;;;;;3.28;2.10;;;;;;;;;;5072002;28;20443;-74
2021/08/01 01:17:35;;;;;;;2.70;2.20;;;;;;;;;;5074637;28;20028;-75
2021/08/01 01:20:26;;;;;;;3.47;2.35;;;;;;;;;;5074872;28;20358;-74
2021/08/01 01:22:57;;;;;;;2.80;2.15;;;;;;;;;;5073757;28;20028;-74
2021/08/01 01:25:25;;;;;;;2.50;2.10;;;;;;;;;;5074295;28;20020;-74
2021/08/01 01:28:10;;;;;;;3.10;2.40;;;;;;;;;;5056682;28;20443;-74
2021/08/01 01:30:44;;;;;;;4.80;2.17;;;;;;;;;;5049809;28;20107;-74
2021/08/01 01:33:11;;;;;;;3.90;2.28;;;;;;;;;;5066555;28;20104;-74
2021/08/01 01:35:38;;;;;;;2.60;2.13;;;;;;;;;;5071041;28;20021;-74
2021/08/01 01:38:04;;;;;;;3.08;2.60;;;;;;;;;;5067070;28;20440;-74
2021/08/01 01:40:30;;;;;;;2.47;2.00;;;;;;;;;;5053317;28;20083;-74
2021/08/01 01:42:57;;;;;;;3.13;2.10;;;;;;;;;;5054034;28;20106;-74
2021/08/01 01:45:28;;;;;;;7.20;2.00;;;;;;;;;;5061121;28;20048;-74
2021/08/01 01:47:54;;;;;;;2.88;2.00;;;;;;;;;;5074380;28;20466;-74
2021/08/01 01:50:20;;;;;;;3.13;2.08;;;;;;;;;;5074210;28;20458;-74
2021/08/01 01:52:49;;;;;;;2.50;2.08;;;;;;;;;;5093537;28;20020;-74
2021/08/01 01:55:16;;;;;;;4.00;2.20;;;;;;;;;;5094472;28;20015;-74
2021/08/01 01:57:46;;;;;;;3.67;2.00;;;;;;;;;;5094209;28;20145;-74
2021/08/01 02:00:11;;;;;;;4.47;2.13;;;;;;;;;;5079276;28;20024;-74
2021/08/01 02:02:37;;;;;;;3.13;2.30;;;;;;;;;;5073502;28;20099;-74
2021/08/01 02:05:03;;;;;;;3.20;2.00;;;;;;;;;;5073620;28;20012;-74
2021/08/01 02:07:31;;;;;;;4.13;2.20;;;;;;;;;;5053673;28;20021;-74
2021/08/01 02:10:02;;;;;;;7.07;2.45;;;;;;;;;;5053896;28;20473;-73
2021/08/01 02:12:33;;;;;;;4.38;2.35;;;;;;;;;;5054195;28;20028;-74
2021/08/01 02:15:11;;;;;;;5.55;2.38;;;;;;;;;;5073679;28;20027;-74
2021/08/01 02:17:53;;;;;;;3.30;2.20;;;;;;;;;;5055235;28;20043;-74
2021/08/01 02:20:20;;;;;;;3.78;2.15;;;;;;;;;;5072774;28;20024;-74
2021/08/01 02:22:46;;;;;;;4.43;2.60;;;;;;;;;;5073802;28;20021;-73
2021/08/01 02:25:12;;;;;;;4.05;2.40;;;;;;;;;;5072009;28;20029;-74
2021/08/01 02:27:38;;;;;;;2.50;1.90;;;;;;;;;;5073396;28;20024;-73
2021/08/01 02:30:03;;;;;;;3.90;2.45;;;;;;;;;;5066519;28;20031;-74
2021/08/01 02:32:30;;;;;;;2.65;2.10;;;;;;;;;;5053291;28;20031;-74
2021/08/01 02:34:58;;;;;;;6.60;2.60;;;;;;;;;;5053118;28;20110;-74
2021/08/01 02:37:24;;;;;;;4.03;2.65;;;;;;;;;;5053426;28;20048;-74
2021/08/01 02:39:49;;;;;;;5.63;2.92;;;;;;;;;;5035889;28;20371;-74
2021/08/01 02:42:15;;;;;;;6.03;2.53;;;;;;;;;;5053045;28;20261;-74
2021/08/01 02:44:44;;;;;;;3.20;2.53;;;;;;;;;;5053193;28;20427;-74
2021/08/01 02:47:10;;;;;;;3.60;2.67;;;;;;;;;;5035246;28;20432;-74
2021/08/01 02:49:42;;;;;;;3.85;2.50;;;;;;;;;;5053144;28;20059;-74
2021/08/01 02:52:12;;;;;;;4.72;2.22;;;;;;;;;;5058025;28;20616;-74
2021/08/01 02:54:39;;;;;;;3.13;2.25;;;;;;;;;;5073449;28;20028;-73
2021/08/01 02:57:08;;;;;;;2.80;2.50;;;;;;;;;;5050801;28;20051;-74
2021/08/01 02:59:35;;;;;;;2.60;2.30;;;;;;;;;;5053306;28;20028;-74
2021/08/01 03:02:00;;;;;;;2.95;2.40;;;;;;;;;;5035595;28;20025;-74
2021/08/01 03:04:26;;;;;;;2.92;2.25;;;;;;;;;;5041245;28;20569;-74
2021/08/01 03:06:52;;;;;;;2.45;2.03;;;;;;;;;;5065349;28;20074;-74
2021/08/01 03:09:20;;;;;;;3.42;1.88;;;;;;;;;;5052883;28;20029;-74
2021/08/01 03:11:47;;;;;;;3.90;2.08;;;;;;;;;;5052565;28;20037;-74
2021/08/01 03:14:12;;;;;;;2.90;2.20;;;;;;;;;;5052922;28;20021;-74
2021/08/01 03:16:40;;;;;;;3.45;1.95;;;;;;;;;;5062352;28;20035;-74
2021/08/01 03:19:05;;;;;;;2.70;1.80;;;;;;;;;;5078442;28;20032;-74
2021/08/01 03:21:31;;;;;;;2.47;2.00;;;;;;;;;;5092898;28;20530;-74
2021/08/01 03:23:58;;;;;;;3.80;2.08;;;;;;;;;;5084185;28;20769;-74
2021/08/01 03:26:26;;;;;;;2.92;1.83;;;;;;;;;;5035341;28;20045;-74
2021/08/01 03:28:51;;;;;;;3.20;2.22;;;;;;;;;;5053026;28;20013;-73
2021/08/01 03:31:16;;;;;;;3.87;2.37;;;;;;;;;;5055574;28;20035;-72
2021/08/01 03:33:43;;;;;;;3.92;2.00;;;;;;;;;;5067248;28;20277;-75
2021/08/01 03:36:09;;;;;;;3.45;2.15;;;;;;;;;;5058906;28;20024;-75
2021/08/01 03:38:36;;;;;;;3.15;2.20;;;;;;;;;;5075955;28;20101;-73
2021/08/01 03:41:01;;;;;;;3.15;2.17;;;;;;;;;;5076351;28;20024;-72
2021/08/01 03:43:26;;;;;;;2.92;2.22;;;;;;;;;;5068147;28;20028;-73
2021/08/01 03:45:52;;;;;;;3.85;1.88;;;;;;;;;;5055724;28;20021;-74
2021/08/01 03:48:19;;;;;;;4.20;2.30;;;;;;;;;;5066738;28;20039;-73
2021/08/01 03:50:44;;;;;;;2.67;2.00;;;;;;;;;;5096531;28;20262;-73
2021/08/01 03:53:12;;;;;;;2.35;1.85;;;;;;;;;;5074426;28;20340;-73
2021/08/01 03:55:39;;;;;;;5.30;2.35;;;;;;;;;;5067143;28;20098;-73
2021/08/01 03:58:07;;;;;;;2.50;2.00;;;;;;;;;;5055739;28;20049;-74
2021/08/01 04:00:32;;;;;;;3.45;2.22;;;;;;;;;;5070113;28;20043;-76
2021/08/01 04:02:57;;;;;;;4.25;2.30;;;;;;;;;;5096091;28;20016;-75
2021/08/01 04:05:22;;;;;;;3.67;2.20;;;;;;;;;;5095407;28;20082;-75
2021/08/01 04:07:50;;;;;;;2.77;2.27;;;;;;;;;;5096466;28;20307;-75
2021/08/01 04:10:15;;;;;;;3.75;2.03;;;;;;;;;;5096590;28;20254;-75
2021/08/01 04:12:41;;;;;;;4.70;2.60;;;;;;;;;;5060818;28;20100;-76
2021/08/01 04:15:08;;;;;;;5.70;2.60;;;;;;;;;;5056060;28;20021;-75
2021/08/01 04:17:34;;;;;;;3.75;1.90;;;;;;;;;;5056002;28;20021;-75
2021/08/01 04:20:00;;;;;;;4.00;2.30;;;;;;;;;;5067620;28;20038;-75
2021/08/01 04:22:28;;;;;;;4.63;2.20;;;;;;;;;;5082247;28;20057;-75
2021/08/01 04:24:55;;;;;;;3.03;2.00;;;;;;;;;;5085932;28;20075;-94
2021/08/01 04:27:23;;;;;;;3.38;2.30;;;;;;;;;;5092056;28;20040;-96
2021/08/01 04:29:48;;;;;;;6.10;2.50;;;;;;;;;;5065370;28;20032;-96
2021/08/01 04:32:13;;;;;;;4.10;2.23;;;;;;;;;;5050611;28;20387;-94
2021/08/01 04:34:38;;;;;;;3.47;2.07;;;;;;;;;;5070080;28;20258;-96
2021/08/01 04:37:06;;;;;;;2.90;2.20;;;;;;;;;;5073911;28;20321;-96
2021/08/01 04:39:31;;;;;;;4.18;2.72;;;;;;;;;;5106852;28;20275;-93
2021/08/01 04:41:56;;;;;;;3.53;2.60;;;;;;;;;;5101447;28;20070;-89
2021/08/01 04:44:21;;;;;;;4.28;2.55;;;;;;;;;;5095399;28;20293;-92
2021/08/01 04:46:47;;;;;;;5.68;2.50;;;;;;;;;;5096003;28;20331;-90
2021/08/01 04:49:12;;;;;;;4.60;2.80;;;;;;;;;;5069614;28;20431;-77
2021/08/01 04:51:40;;;;;;;7.57;3.30;;;;;;;;;;5055172;28;20024;-77
2021/08/01 04:54:05;;;;;;;4.18;2.78;;;;;;;;;;5054452;28;20028;-77
2021/08/01 04:56:30;;;;;;;3.78;3.00;;;;;;;;;;5055040;28;20045;-77
2021/08/01 04:58:55;;;;;;;4.73;3.00;;;;;;;;;;5054538;28;20100;-77
2021/08/01 05:01:23;;;;;;;3.63;2.67;;;;;;;;;;5070713;28;20432;-78
2021/08/01 05:03:48;;;;;;;4.20;2.70;;;;;;;;;;5075229;28;20750;-78
2021/08/01 05:06:13;;;;;;;3.33;3.03;;;;;;;;;;5065323;28;20021;-90
2021/08/01 05:08:41;;;;;;;5.85;3.40;;;;;;;;;;5073852;28;20095;-91
2021/08/01 05:11:06;;;;;;;6.68;3.45;;;;;;;;;;5074372;28;20021;-91
2021/08/01 05:13:31;;;;;;;4.82;3.30;;;;;;;;;;5086017;28;20019;-91
2021/08/01 05:15:59;;;;;;;6.13;3.33;;;;;;;;;;5095217;28;20024;-91
2021/08/01 05:18:26;;;;;;;5.30;3.38;;;;;;;;;;5084416;28;20020;-92
2021/08/01 05:20:52;;;;;;;4.85;2.90;;;;;;;;;;5074550;28;20108;-93
2021/08/01 05:23:17;;;;;;;4.13;3.10;;;;;;;;;;5049577;28;20120;-93
2021/08/01 05:25:42;;;;;;;7.28;3.85;;;;;;;;;;5072757;28;20262;-92
2021/08/01 05:28:10;;;;;;;7.32;3.65;;;;;;;;;;5094914;28;20103;-92
2021/08/01 05:30:35;;;;;;;7.90;4.20;;;;;;;;;;5094947;28;20516;-93
2021/08/01 05:33:07;;;;;;;7.23;4.33;;;;;;;;;;5095026;28;20055;-90
2021/08/01 05:35:32;;;;;;;5.43;3.83;;;;;;;;;;5064908;28;20283;-90
2021/08/01 05:37:58;;;;;;;5.07;3.22;;;;;;;;;;5054298;28;20447;-91
2021/08/01 05:40:23;;;;;;;9.85;4.07;;;;;;;;;;5056463;28;20024;-90
2021/08/01 05:42:50;;;;;;;5.35;4.10;;;;;;;;;;5063325;28;20087;-92
2021/08/01 05:45:15;;;;;;;6.85;3.55;;;;;;;;;;5065118;28;20040;-92
2021/08/01 05:47:43;;;;;;;6.87;3.97;;;;;;;;;;5062951;28;20347;-92
2021/08/01 05:50:09;;;;;;;4.93;3.90;;;;;;;;;;5045940;28;20256;-93
2021/08/01 05:52:35;;;;;;;6.22;3.80;;;;;;;;;;5062531;28;20359;-93
2021/08/01 05:55:00;;;;;;;7.38;3.58;;;;;;;;;;5064075;28;20154;-92
2021/08/01 05:57:25;;;;;;;5.32;3.25;;;;;;;;;;5064181;28;20048;-91
2021/08/01 05:59:50;;;;;;;7.38;3.50;;;;;;;;;;5063498;28;20016;-91
2021/08/01 06:02:18;;;;;;;6.63;3.85;;;;;;;;;;5064994;28;20032;-88
2021/08/01 06:04:43;;;;;;;8.25;4.30;;;;;;;;;;5044735;28;20337;-91
2021/08/01 06:07:08;;;;;;;10.15;4.25;;;;;;;;;;5072880;28;20028;-88
2021/08/01 06:09:36;;;;;;;8.57;4.97;;;;;;;;;;5073607;28;20442;-84
2021/08/01 06:12:01;;;;;;;8.02;4.72;;;;;;;;;;5073726;28;20013;-88
2021/08/01 06:14:26;;;;;;;9.07;4.43;;;;;;;;;;5037628;28;20094;-88
2021/08/01 06:16:52;;;;;;;5.00;3.67;;;;;;;;;;5053686;28;20032;-89
2021/08/01 06:19:17;;;;;;;7.87;4.37;;;;;;;;;;5052335;28;20278;-89
2021/08/01 06:21:44;;;;;;;8.80;4.27;;;;;;;;;;5073838;28;20650;-90
2021/08/01 06:24:10;;;;;;;6.63;4.03;;;;;;;;;;5073791;28;20261;-90
2021/08/01 06:26:35;;;;;;;5.85;3.55;;;;;;;;;;5076582;28;20087;-90
2021/08/01 06:29:03;;;;;;;8.55;3.85;;;;;;;;;;5093415;28;20020;-89
2021/08/01 06:31:28;;;;;;;6.30;4.07;;;;;;;;;;5090505;28;20096;-89
2021/08/01 06:33:53;;;;;;;8.02;4.00;;;;;;;;;;5052980;28;20103;-90
2021/08/01 06:36:18;;;;;;;7.55;3.80;;;;;;;;;;5053494;28;20021;-89
2021/08/01 06:38:44;;;;;;;8.30;3.85;;;;;;;;;;5053752;28;20029;-89
2021/08/01 06:41:10;;;;;;;7.88;4.47;;;;;;;;;;5053344;28;20090;-87
2021/08/01 06:43:35;;;;;;;7.38;3.85;;;;;;;;;;5061111;28;20115;-90
2021/08/01 06:46:01;;;;;;;9.45;4.38;;;;;;;;;;5073316;28;20013;-83
2021/08/01 06:48:26;;;;;;;7.35;4.53;;;;;;;;;;5073535;28;20027;-93
2021/08/01 06:50:51;;;;;;;6.20;4.53;;;;;;;;;;5054208;28;20099;-85
2021/08/01 06:53:17;;;;;;;7.03;4.50;;;;;;;;;;5053598;28;20051;-93
2021/08/01 06:55:42;;;;;;;7.72;4.50;;;;;;;;;;5063951;28;20053;-91
2021/08/01 06:58:10;;;;;;;7.43;3.77;;;;;;;;;;5049454;28;20072;-89
2021/08/01 07:00:35;;;;;;;7.18;4.20;;;;;;;;;;5062703;28;20286;-91
2021/08/01 07:03:01;;;;;;;8.02;4.53;;;;;;;;;;5053929;28;20021;-92
2021/08/01 07:05:27;;;;;;;7.28;4.57;;;;;;;;;;5061025;28;20020;-90
2021/08/01 07:07:53;;;;;;;7.47;4.18;;;;;;;;;;5076818;28;20028;-87
2021/08/01 07:10:18;;;;;;;7.30;3.88;;;;;;;;;;5075204;28;20079;-91
2021/08/01 07:12:44;;;;;;;6.82;3.60;;;;;;;;;;5073028;28;20048;-92
2021/08/01 07:15:10;;;;;;;7.05;3.92;;;;;;;;;;5064878;28;20557;-91
2021/08/01 07:17:38;;;;;;;6.60;3.40;;;;;;;;;;5059364;28;20025;-93
2021/08/01 07:20:05;;;;;;;5.93;3.60;;;;;;;;;;5069872;28;20016;-88
2021/08/01 07:22:32;;;;;;;5.97;3.80;;;;;;;;;;5076862;28;20332;-85
2021/08/01 07:24:57;;;;;;;6.57;4.20;;;;;;;;;;5076418;28;20031;-85
2021/08/01 07:27:25;;;;;;;8.20;3.70;;;;;;;;;;5059064;28;20028;-84
2021/08/01 07:29:50;;;;;;;6.82;3.53;;;;;;;;;;5071722;28;20390;-90
2021/08/01 07:32:16;;;;;;;4.27;3.30;;;;;;;;;;5060280;28;20503;-86
2021/08/01 07:34:41;;;;;;;5.17;3.00;;;;;;;;;;5058082;28;20746;-84
2021/08/01 07:37:06;;;;;;;5.27;3.10;;;;;;;;;;5039549;28;20371;-86
2021/08/01 07:39:34;;;;;;;4.90;2.85;;;;;;;;;;5057781;28;20270;-89
2021/08/01 07:41:59;;;;;;;6.97;3.22;;;;;;;;;;5064709;28;20108;-90
2021/08/01 07:44:26;;;;;;;7.82;3.22;;;;;;;;;;5057711;28;20424;-93
2021/08/01 07:46:54;;;;;;;3.83;2.95;;;;;;;;;;5057125;28;20013;-93
2021/08/01 07:49:19;;;;;;;5.28;3.00;;;;;;;;;;5057375;28;20017;-92
2021/08/01 07:51:47;;;;;;;5.47;2.97;;;;;;;;;;5069217;28;20040;-94
2021/08/01 07:54:12;;;;;;;4.97;3.10;;;;;;;;;;5080252;28;20259;-91
2021/08/01 07:56:40;;;;;;;5.68;2.90;;;;;;;;;;5067064;28;20106;-92
2021/08/01 07:59:05;;;;;;;4.55;2.80;;;;;;;;;;5076259;28;20033;-86
2021/08/01 08:01:32;;;;;;;5.93;3.10;;;;;;;;;;5073054;28;20016;-86
2021/08/01 08:03:58;;;;;;;4.82;2.80;;;;;;;;;;5064547;28;20350;-82
2021/08/01 08:06:23;;;;;;;3.83;2.50;;;;;;;;;;5062790;28;20092;-79
2021/08/01 08:08:50;;;;;;;3.67;2.25;;;;;;;;;;5060560;28;20255;-84
2021/08/01 08:11:15;;;;;;;5.63;2.40;;;;;;;;;;5057433;28;20029;-84
2021/08/01 08:13:41;;;;;;;6.47;2.85;;;;;;;;;;5064735;28;20029;-85
2021/08/01 08:16:09;;;;;;;4.63;2.50;;;;;;;;;;5059632;28;20093;-78
2021/08/01 08:18:34;;;;;;;4.45;2.50;;;;;;;;;;5075331;28;20028;-78
2021/08/01 08:21:02;;;;;;;6.90;2.63;;;;;;;;;;5056972;28;20094;-78
2021/08/01 08:23:27;;;;;;;3.35;2.40;;;;;;;;;;5056029;28;20347;-78
2021/08/01 08:25:54;;;;;;;6.38;2.25;;;;;;;;;;5055112;28;20118;-78
2021/08/01 08:28:19;;;;;;;6.03;2.58;;;;;;;;;;5055563;28;20013;-78
2021/08/01 08:30:44;;;;;;;6.00;2.38;;;;;;;;;;5055406;28;20522;-78
2021/08/01 08:33:13;;;;;;;2.60;2.00;;;;;;;;;;5055149;28;20410;-78
2021/08/01 08:35:40;;;;;;;2.58;1.88;;;;;;;;;;5057385;28;20333;-77
2021/08/01 08:38:05;;;;;;;4.25;1.80;;;;;;;;;;5064421;28;20049;-89
2021/08/01 08:40:37;;;;;;;2.72;2.10;;;;;;;;;;5064695;28;20053;-89
2021/08/01 08:43:04;;;;;;;2.85;1.92;;;;;;;;;;5065305;28;20036;-88
2021/08/01 08:45:34;;;;;;;2.85;1.75;;;;;;;;;;5069419;28;20021;-87
2021/08/01 08:47:59;;;;;;;3.30;1.67;;;;;;;;;;5055162;28;20045;-87
2021/08/01 08:50:25;;;;;;;3.30;1.90;;;;;;;;;;5057740;28;20055;-90
2021/08/01 08:52:52;;;;;;;3.10;2.00;;;;;;;;;;5055362;28;20013;-88
2021/08/01 08:55:18;;;;;;;4.22;1.83;;;;;;;;;;5061300;28;20021;-88
2021/08/01 08:57:49;;;;;;;4.13;1.92;;;;;;;;;;5068113;28;20040;-86
2021/08/01 09:00:14;;;;;;;5.47;1.80;;;;;;;;;;5070669;28;20474;-85
2021/08/01 09:02:42;;;;;;;4.30;2.10;;;;;;;;;;5054845;28;20025;-89
2021/08/01 09:05:07;;;;;;;2.88;1.60;;;;;;;;;;5043630;28;20457;-86
2021/08/01 09:07:33;;;;;;;3.58;2.05;;;;;;;;;;5068235;28;20024;-87
2021/08/01 09:09:58;;;;;;;1.77;1.50;;;;;;;;;;5037120;28;20021;-85
2021/08/01 09:12:23;;;;;;;2.50;1.40;;;;;;;;;;5065819;28;20028;-87
2021/08/01 09:15:07;;;;;;;2.88;1.58;;;;;;;;;;5068823;28;20277;-85
2021/08/01 09:17:33;;;;;;;3.78;1.70;;;;;;;;;;5055399;28;20088;-87
2021/08/01 09:20:10;;;;;;;2.88;1.25;;;;;;;;;;5056901;28;20027;-88
2021/08/01 09:22:36;;;;;;;2.47;1.60;;;;;;;;;;5074491;28;20021;-86
2021/08/01 09:25:01;;;;;;;2.13;1.20;;;;;;;;;;5074690;28;20017;-86
2021/08/01 09:27:33;;;;;;;2.13;1.30;;;;;;;;;;5074016;28;20275;-86
2021/08/01 09:30:02;;;;;;;3.92;1.40;;;;;;;;;;5073781;28;20558;-86
2021/08/01 09:32:43;;;;;;;1.73;1.23;;;;;;;;;;5053282;28;20058;-84
2021/08/01 09:35:15;;;;;;;2.78;1.40;;;;;;;;;;5059342;28;20038;-85
2021/08/01 09:37:44;;;;;;;2.70;1.38;;;;;;;;;;5054040;28;20017;-84
2021/08/01 09:40:11;;;;;;;4.00;1.52;;;;;;;;;;5057959;28;20017;-84
2021/08/01 09:42:44;;;;;;;2.22;1.38;;;;;;;;;;5066091;28;20053;-86
2021/08/01 09:45:30;;;;;;;2.33;1.40;;;;;;;;;;5064710;28;20079;-85
2021/08/01 09:48:12;;;;;;;1.80;1.30;;;;;;;;;;5073178;28;20032;-86
2021/08/01 09:50:55;;;;;;;2.88;1.45;;;;;;;;;;5069596;28;20282;-86
2021/08/01 09:53:20;;;;;;;2.42;1.40;;;;;;;;;;5054085;28;20009;-85
2021/08/01 09:55:45;;;;;;;2.03;1.33;;;;;;;;;;5062906;28;20357;-83
2021/08/01 09:58:11;;;;;;;2.28;1.20;;;;;;;;;;5073756;28;20281;-83
2021/08/01 10:00:56;;;;;;;5.85;1.38;;;;;;;;;;5080041;28;20334;-84
2021/08/01 10:03:36;;;;;;;1.92;1.20;;;;;;;;;;5093606;28;20027;-84
2021/08/01 10:06:12;;;;;;;2.35;1.25;;;;;;;;;;5083897;28;20099;-84
2021/08/01 10:08:41;;;;;;;2.42;1.23;;;;;;;;;;5056031;28;20040;-83
2021/08/01 10:11:14;;;;;;;4.13;1.35;;;;;;;;;;5067025;28;20470;-84
2021/08/01 10:13:39;;;;;;;3.08;1.20;;;;;;;;;;5056252;28;20063;-84
2021/08/01 10:16:06;;;;;;;1.38;1.10;;;;;;;;;;5073870;28;20048;-83
2021/08/01 10:18:34;;;;;;;1.60;1.17;;;;;;;;;;5056462;28;20481;-85
2021/08/01 10:21:05;;;;;;;2.15;1.10;;;;;;;;;;5057197;28;20029;-84
2021/08/01 10:23:40;;;;;;;3.80;1.38;;;;;;;;;;5053584;28;20016;-85
2021/08/01 10:26:06;;;;;;;3.88;1.42;;;;;;;;;;5067609;28;20016;-85
2021/08/01 10:28:34;;;;;;;2.40;1.20;;;;;;;;;;5094103;28;20031;-85
2021/08/01 10:31:02;;;;;;;2.67;1.27;;;;;;;;;;5094052;28;20020;-85
2021/08/01 10:33:31;;;;;;;2.40;1.40;;;;;;;;;;5074976;28;20465;-85
2021/08/01 10:35:59;;;;;;;4.72;1.35;;;;;;;;;;5073629;28;20024;-85
2021/08/01 10:38:25;;;;;;;2.13;1.20;;;;;;;;;;5073549;28;20090;-86
2021/08/01 10:40:55;;;;;;;1.38;1.02;;;;;;;;;;5089774;28;20036;-89
2021/08/01 10:43:27;;;;;;;3.58;1.38;;;;;;;;;;5093744;28;20035;-85
2021/08/01 10:45:52;;;;;;;2.90;1.52;;;;;;;;;;5093937;28;20012;-85
2021/08/01 10:48:23;;;;;;;2.10;1.30;;;;;;;;;;5052779;28;20027;-85
2021/08/01 10:50:53;;;;;;;2.45;1.30;;;;;;;;;;5071146;28;20016;-86
2021/08/01 10:53:18;;;;;;;2.83;1.50;;;;;;;;;;5055882;28;20024;-86
2021/08/01 10:55:46;;;;;;;1.90;1.23;;;;;;;;;;5063535;28;20031;-84
2021/08/01 10:58:14;;;;;;;3.42;1.35;;;;;;;;;;5059209;28;20355;-86
2021/08/01 11:00:54;;;;;;;2.42;1.35;;;;;;;;;;5062438;28;20045;-84
2021/08/01 11:03:20;;;;;;;5.35;1.50;;;;;;;;;;5063777;28;20024;-84
2021/08/01 11:05:45;;;;;;;3.37;1.23;;;;;;;;;;5062279;28;20025;-84
2021/08/01 11:08:10;;;;;;;3.53;1.60;;;;;;;;;;5059681;28;20287;-84
2021/08/01 11:10:36;;;;;;;3.57;1.63;;;;;;;;;;5056837;28;20268;-85
2021/08/01 11:13:21;;;;;;;2.47;1.00;;;;;;;;;;5053615;28;20259;-84
2021/08/01 11:15:49;;;;;;;2.70;1.20;;;;;;;;;;5057136;28;20328;-85
2021/08/01 11:18:14;;;;;;;2.63;1.40;;;;;;;;;;5073167;28;20020;-84
2021/08/01 11:20:43;;;;;;;2.88;1.27;;;;;;;;;;5073230;28;20091;-84
2021/08/01 11:23:08;;;;;;;3.05;1.33;;;;;;;;;;5073295;28;20024;-83
2021/08/01 11:25:34;;;;;;;3.47;1.50;;;;;;;;;;5071889;28;20089;-91
2021/08/01 11:28:19;;;;;;;4.85;1.50;;;;;;;;;;5072885;28;20426;-82
2021/08/01 11:30:53;;;;;;;2.03;1.38;;;;;;;;;;5052602;28;20013;-82
2021/08/01 11:33:34;;;;;;;2.58;1.25;;;;;;;;;;5055395;28;20036;-83
2021/08/01 11:36:11;;;;;;;2.20;1.30;;;;;;;;;;5059953;28;20082;-83
2021/08/01 11:38:37;;;;;;;3.53;1.45;;;;;;;;;;5052965;28;20028;-83
2021/08/01 11:41:02;;;;;;;3.38;1.52;;;;;;;;;;5058154;28;20031;-83
2021/08/01 11:43:32;;;;;;;3.30;1.40;;;;;;;;;;5052717;28;20363;-84
2021/08/01 11:46:01;;;;;;;2.35;1.40;;;;;;;;;;5064946;28;20021;-84
2021/08/01 11:48:27;;;;;;;5.57;1.67;;;;;;;;;;5054948;28;20016;-83
2021/08/01 11:50:57;;;;;;;2.95;1.67;;;;;;;;;;5051669;28;20393;-81
2021/08/01 11:53:23;;;;;;;3.78;1.50;;;;;;;;;;5064833;28;20031;-82
2021/08/01 11:55:51;;;;;;;4.00;1.52;;;;;;;;;;5061408;28;20024;-82
2021/08/01 11:58:16;;;;;;;2.28;1.58;;;;;;;;;;5059185;28;20036;-84
2021/08/01 12:00:42;;;;;;;2.60;1.20;;;;;;;;;;5041564;28;20027;-81
2021/08/01 12:03:08;;;;;;;2.63;1.30;;;;;;;;;;5061149;28;20088;-86
2021/08/01 12:05:43;;;;;;;2.58;1.30;;;;;;;;;;5091577;28;20266;-85
2021/08/01 12:08:08;;;;;;;4.85;1.52;;;;;;;;;;5056031;28;20029;-81
2021/08/01 12:10:33;;;;;;;3.60;1.30;;;;;;;;;;5072231;28;20024;-85
2021/08/01 12:13:10;;;;;;;2.60;1.33;;;;;;;;;;5058157;28;20259;-85
2021/08/01 12:15:38;;;;;;;3.22;1.42;;;;;;;;;;5071766;28;20024;-83
2021/08/01 12:18:03;;;;;;;5.18;1.67;;;;;;;;;;5072282;28;20087;-83
2021/08/01 12:20:32;;;;;;;4.28;1.70;;;;;;;;;;5066337;28;20016;-84
2021/08/01 12:22:58;;;;;;;5.70;1.75;;;;;;;;;;5070590;28;20027;-83
2021/08/01 12:25:23;;;;;;;3.67;1.83;;;;;;;;;;5069293;28;20012;-84
2021/08/01 12:27:48;;;;;;;5.90;2.07;;;;;;;;;;5074318;28;20091;-81
2021/08/01 12:30:20;;;;;;;3.00;2.00;;;;;;;;;;5052883;28;20021;-82
2021/08/01 12:32:49;;;;;;;2.10;1.40;;;;;;;;;;5064702;28;20266;-83
2021/08/01 12:35:26;;;;;;;4.15;1.20;;;;;;;;;;5062451;28;20029;-83
2021/08/01 12:38:03;;;;;;;4.80;1.20;;;;;;;;;;5055452;28;20057;-83
2021/08/01 12:40:31;;;;;;;4.15;1.33;;;;;;;;;;5055255;28;20065;-83
2021/08/01 12:43:00;;;;;;;3.50;1.10;;;;;;;;;;5055277;28;20088;-84
2021/08/01 12:45:33;;;;;;;1.80;1.00;;;;;;;;;;5061780;28;20104;-86
2021/08/01 12:48:01;;;;;;;3.97;1.58;;;;;;;;;;5065336;28;20362;-84
2021/08/01 12:50:27;;;;;;;2.25;1.00;;;;;;;;;;5075717;28;20016;-84
2021/08/01 12:52:53;;;;;;;4.10;2.60;;;;;;;;;;5075033;28;20020;-85
2021/08/01 12:55:18;;;;;;;2.55;1.25;;;;;;;;;;5067715;28;20050;-84
2021/08/01 12:58:04;;;;;;;2.33;1.10;;;;;;;;;;5054936;28;20049;-84
2021/08/01 13:00:30;;;;;;;1.67;0.93;;;;;;;;;;5043246;28;20029;-83
2021/08/01 13:03:01;;;;;;;2.33;1.00;;;;;;;;;;5067561;28;20166;-84
2021/08/01 13:05:28;;;;;;;2.58;1.33;;;;;;;;;;5060104;28;20459;-83
2021/08/01 13:07:53;;;;;;;5.53;1.50;;;;;;;;;;5075045;28;20057;-83
2021/08/01 13:10:19;;;;;;;1.90;1.00;;;;;;;;;;5073655;28;20020;-83
2021/08/01 13:13:03;;;;;;;5.13;1.20;;;;;;;;;;5059090;28;20028;-83
2021/08/01 13:15:29;;;;;;;2.38;0.80;;;;;;;;;;5091864;28;20288;-83
2021/08/01 13:17:56;;;;;;;1.52;1.02;;;;;;;;;;5073403;28;20383;-84
2021/08/01 13:20:51;;;;;;;2.33;1.10;;;;;;;;;;5074571;28;20016;-83
2021/08/01 13:23:28;;;;;;;3.72;1.30;;;;;;;;;;5041214;28;20033;-83
2021/08/01 13:25:55;;;;;;;4.15;1.50;;;;;;;;;;5064815;28;20021;-84
2021/08/01 13:28:50;;;;;;;2.25;1.30;;;;;;;;;;5054220;28;20017;-86
2021/08/01 13:31:16;;;;;;;4.05;1.40;;;;;;;;;;5071799;28;20104;-85
2021/08/01 13:33:54;;;;;;;2.42;1.40;;;;;;;;;;5077508;28;20021;-86
2021/08/01 13:36:19;;;;;;;2.55;1.33;;;;;;;;;;5084695;28;20031;-84
2021/08/01 13:38:45;;;;;;;3.03;1.27;;;;;;;;;;5066231;28;20025;-84
2021/08/01 13:41:22;;;;;;;3.67;1.30;;;;;;;;;;5066156;28;20485;-86
2021/08/01 13:44:05;;;;;;;1.85;1.13;;;;;;;;;;5068935;28;20025;-85
2021/08/01 13:46:31;;;;;;;3.20;1.10;;;;;;;;;;5065348;28;20043;-86
2021/08/01 13:48:56;;;;;;;3.53;1.30;;;;;;;;;;5063785;28;20017;-84
2021/08/01 13:51:21;;;;;;;3.43;1.50;;;;;;;;;;5065035;28;20020;-84
2021/08/01 13:53:46;;;;;;;2.57;1.20;;;;;;;;;;5054150;28;20029;-84
2021/08/01 13:56:11;;;;;;;2.70;1.20;;;;;;;;;;5054030;28;20444;-84
2021/08/01 13:58:39;;;;;;;2.80;1.40;;;;;;;;;;5062202;28;20466;-84
2021/08/01 14:01:04;;;;;;;3.03;1.60;;;;;;;;;;5062694;28;20073;-84
2021/08/01 14:03:29;;;;;;;4.90;1.67;;;;;;;;;;5053940;28;20044;-84
2021/08/01 14:05:55;;;;;;;3.70;1.70;;;;;;;;;;5042020;28;20034;-84
2021/08/01 14:08:20;;;;;;;4.30;1.70;;;;;;;;;;5064402;28;20361;-84
2021/08/01 14:10:45;;;;;;;3.47;2.03;;;;;;;;;;5053241;28;20264;-84
2021/08/01 14:13:12;;;;;;;7.27;2.03;;;;;;;;;;5047198;28;20086;-84
2021/08/01 14:15:39;;;;;;;3.15;1.60;;;;;;;;;;5066771;28;20602;-85
2021/08/01 14:18:04;;;;;;;4.10;1.88;;;;;;;;;;5056423;28;20049;-84
2021/08/01 14:20:29;;;;;;;3.47;1.87;;;;;;;;;;5091421;28;20071;-85
2021/08/01 14:22:57;;;;;;;5.40;1.77;;;;;;;;;;5068038;28;20431;-85
2021/08/01 14:25:24;;;;;;;5.85;2.00;;;;;;;;;;5046369;28;20337;-85
2021/08/01 14:27:50;;;;;;;3.72;1.50;;;;;;;;;;5063535;28;20432;-85
2021/08/01 14:30:20;;;;;;;3.15;1.60;;;;;;;;;;5070641;28;20017;-86
2021/08/01 14:32:48;;;;;;;2.92;1.65;;;;;;;;;;5060641;28;20029;-85
2021/08/01 14:35:14;;;;;;;2.45;1.40;;;;;;;;;;5068458;28;20024;-85
2021/08/01 14:37:40;;;;;;;3.55;1.40;;;;;;;;;;5052998;28;20089;-85
2021/08/01 14:40:08;;;;;;;5.55;1.70;;;;;;;;;;5069746;28;20041;-84
2021/08/01 14:42:33;;;;;;;5.65;2.10;;;;;;;;;;5067919;28;20078;-83
2021/08/01 14:45:01;;;;;;;3.95;2.00;;;;;;;;;;5058644;28;20025;-84
2021/08/01 14:47:33;;;;;;;4.22;1.70;;;;;;;;;;5069091;28;20085;-85